createdAt,value
2023-02-07T00:00:39.382Z,12.70
2023-02-07T00:01:39.470Z,12.70
2023-02-07T00:02:39.377Z,12.70
2023-02-07T00:03:39.373Z,12.50
2023-02-07T00:04:39.382Z,12.20
2023-02-07T00:05:39.631Z,12.60
2023-02-07T00:06:39.326Z,12.80
2023-02-07T00:07:39.294Z,12.80
2023-02-07T00:08:39.281Z,12.40
2023-02-07T00:09:39.304Z,13.70
2023-02-07T00:10:39.267Z,12.70
2023-02-07T00:11:39.261Z,12.40
2023-02-07T00:12:39.240Z,13.10
2023-02-07T00:13:39.227Z,13.10
2023-02-07T00:14:39.225Z,13.00
2023-02-07T00:15:39.421Z,12.30
2023-02-07T00:16:39.272Z,12.40
2023-02-07T00:17:39.184Z,12.30
2023-02-07T00:18:39.181Z,12.00
2023-02-07T00:19:39.150Z,11.90
2023-02-07T00:20:39.131Z,12.00
2023-02-07T00:21:39.135Z,12.10
2023-02-07T00:22:39.107Z,12.10
2023-02-07T00:23:39.103Z,12.40
2023-02-07T00:24:39.088Z,12.10
2023-02-07T00:25:39.352Z,12.10
2023-02-07T00:26:39.066Z,13.00
2023-02-07T00:27:39.110Z,12.60
2023-02-07T00:28:39.148Z,12.90
2023-02-07T00:29:39.017Z,12.50
2023-02-07T00:30:39.054Z,13.80
2023-02-07T00:31:39.048Z,12.60
2023-02-07T00:32:38.985Z,13.10
2023-02-07T00:33:39.009Z,13.40
2023-02-07T00:34:38.966Z,13.30
2023-02-07T00:35:39.371Z,13.40
2023-02-07T00:36:38.929Z,13.40
2023-02-07T00:37:38.921Z,12.70
2023-02-07T00:38:38.932Z,12.70
2023-02-07T00:39:38.918Z,12.60
2023-02-07T00:40:38.884Z,11.80
2023-02-07T00:41:38.881Z,12.20
2023-02-07T00:42:38.860Z,13.10
2023-02-07T00:43:38.864Z,12.90
2023-02-07T00:44:38.834Z,12.70
2023-02-07T00:45:39.170Z,12.80
2023-02-07T00:46:38.828Z,13.00
2023-02-07T00:47:38.795Z,13.20
2023-02-07T00:48:38.793Z,13.20
2023-02-07T00:49:38.777Z,12.80
2023-02-07T00:50:38.784Z,12.40
2023-02-07T00:51:38.774Z,12.00
2023-02-07T00:52:38.736Z,13.20
2023-02-07T00:53:38.729Z,12.30
2023-02-07T00:54:38.708Z,12.70
2023-02-07T00:55:38.958Z,12.80
2023-02-07T00:56:38.688Z,12.50
2023-02-07T00:57:38.690Z,12.70
2023-02-07T00:58:38.650Z,13.10
2023-02-07T00:59:38.643Z,13.70
2023-02-07T01:00:38.652Z,12.70
2023-02-07T01:01:38.670Z,13.00
2023-02-07T01:02:38.608Z,12.90
2023-02-07T01:03:38.621Z,12.80
2023-02-07T01:04:38.669Z,12.70
2023-02-07T01:05:38.848Z,12.60
2023-02-07T01:06:38.575Z,12.60
2023-02-07T01:07:38.542Z,12.50
2023-02-07T01:08:38.572Z,13.30
2023-02-07T01:09:38.543Z,12.40
2023-02-07T01:10:38.513Z,12.30
2023-02-07T01:11:38.508Z,13.60
2023-02-07T01:12:38.509Z,12.80
2023-02-07T01:13:38.472Z,12.40
2023-02-07T01:14:38.462Z,12.90
2023-02-07T01:15:38.853Z,12.70
2023-02-07T01:16:38.434Z,12.30
2023-02-07T01:17:38.424Z,12.40
2023-02-07T01:18:38.421Z,12.50
2023-02-07T01:19:38.431Z,12.50
2023-02-07T01:20:38.389Z,11.70
2023-02-07T01:21:38.411Z,12.20
2023-02-07T01:22:38.360Z,12.20
2023-02-07T01:23:38.364Z,12.10
2023-02-07T01:24:38.341Z,12.10
2023-02-07T01:25:38.640Z,12.30
2023-02-07T01:26:38.318Z,12.80
2023-02-07T01:27:38.333Z,12.20
2023-02-07T01:28:38.290Z,12.70
2023-02-07T01:29:38.322Z,12.60
2023-02-07T01:30:38.301Z,12.40
2023-02-07T01:31:38.373Z,12.00
2023-02-07T01:32:38.247Z,12.10
2023-02-07T01:33:38.238Z,12.20
2023-02-07T01:34:38.233Z,12.40
2023-02-07T01:35:38.505Z,11.80
2023-02-07T01:36:38.189Z,11.50
2023-02-07T01:37:38.185Z,12.20
2023-02-07T01:38:38.155Z,12.40
2023-02-07T01:39:38.173Z,12.10
2023-02-07T01:40:38.204Z,12.30
2023-02-07T01:41:38.124Z,11.90
2023-02-07T01:42:38.114Z,12.90
2023-02-07T01:43:38.095Z,12.30
2023-02-07T01:44:38.113Z,12.00
2023-02-07T01:45:38.458Z,12.50
2023-02-07T01:46:38.077Z,12.80
2023-02-07T01:47:38.038Z,12.90
2023-02-07T01:48:38.029Z,13.10
2023-02-07T01:49:38.030Z,13.50
2023-02-07T01:50:38.007Z,13.00
2023-02-07T01:51:38.008Z,12.70
2023-02-07T01:52:37.987Z,11.90
2023-02-07T01:53:37.970Z,13.90
2023-02-07T01:54:37.955Z,13.00
2023-02-07T01:55:38.342Z,13.90
2023-02-07T01:56:37.931Z,14.00
2023-02-07T01:57:37.980Z,13.10
2023-02-07T01:58:37.904Z,13.20
2023-02-07T01:59:37.894Z,12.30
2023-02-07T02:00:37.880Z,13.10
2023-02-07T02:01:37.913Z,13.80
2023-02-07T02:02:37.903Z,13.40
2023-02-07T02:03:37.866Z,12.80
2023-02-07T02:04:37.877Z,12.90
2023-02-07T02:05:38.138Z,13.70
2023-02-07T02:06:37.814Z,13.30
2023-02-07T02:07:37.802Z,12.80
2023-02-07T02:08:37.799Z,12.30
2023-02-07T02:09:37.799Z,13.00
2023-02-07T02:10:37.754Z,12.80
2023-02-07T02:11:37.733Z,12.80
2023-02-07T02:12:37.730Z,13.00
2023-02-07T02:13:37.722Z,13.90
2023-02-07T02:14:37.721Z,13.90
2023-02-07T02:15:38.277Z,13.30
2023-02-07T02:16:37.698Z,13.40
2023-02-07T02:17:37.672Z,13.70
2023-02-07T02:18:37.663Z,13.80
2023-02-07T02:19:37.657Z,14.40
2023-02-07T02:20:37.631Z,15.30
2023-02-07T02:21:37.661Z,15.40
2023-02-07T02:22:37.599Z,15.10
2023-02-07T02:23:37.601Z,15.20
2023-02-07T02:24:37.600Z,14.70
2023-02-07T02:25:37.923Z,15.70
2023-02-07T02:26:37.560Z,15.30
2023-02-07T02:27:37.559Z,15.10
2023-02-07T02:28:37.540Z,16.40
2023-02-07T02:29:37.531Z,16.60
2023-02-07T02:30:37.543Z,15.60
2023-02-07T02:31:37.553Z,15.90
2023-02-07T02:32:37.477Z,16.10
2023-02-07T02:33:37.486Z,15.50
2023-02-07T02:34:37.467Z,15.30
2023-02-07T02:35:37.694Z,15.00
2023-02-07T02:36:37.434Z,14.70
2023-02-07T02:37:37.426Z,15.30
2023-02-07T02:38:37.407Z,15.90
2023-02-07T02:39:37.422Z,16.30
2023-02-07T02:40:37.378Z,15.80
2023-02-07T02:41:37.382Z,15.00
2023-02-07T02:42:37.356Z,15.60
2023-02-07T02:43:37.344Z,16.20
2023-02-07T02:44:37.336Z,16.70
2023-02-07T02:45:37.640Z,16.90
2023-02-07T02:46:37.355Z,15.30
2023-02-07T02:47:37.313Z,16.20
2023-02-07T02:48:37.286Z,15.40
2023-02-07T02:49:37.266Z,15.50
2023-02-07T02:50:37.267Z,16.10
2023-02-07T02:51:37.265Z,16.10
2023-02-07T02:52:50.206Z,16.40
2023-02-07T02:53:38.227Z,16.40
2023-02-07T02:54:37.227Z,16.90
2023-02-07T02:55:37.393Z,16.60
2023-02-07T02:56:37.182Z,15.80
2023-02-07T02:57:37.191Z,16.20
2023-02-07T02:58:37.159Z,16.80
2023-02-07T02:59:37.140Z,15.50
2023-02-07T03:00:37.140Z,16.00
2023-02-07T03:01:37.127Z,15.80
2023-02-07T03:02:37.123Z,16.20
2023-02-07T03:03:37.125Z,16.70
2023-02-07T03:04:37.080Z,17.30
2023-02-07T03:05:37.315Z,17.40
2023-02-07T03:06:37.072Z,17.60
2023-02-07T03:07:37.065Z,19.10
2023-02-07T03:08:37.038Z,18.70
2023-02-07T03:09:37.053Z,18.10
2023-02-07T03:10:37.023Z,18.10
2023-02-07T03:11:37.014Z,21.30
2023-02-07T03:12:36.983Z,19.20
2023-02-07T03:13:36.992Z,17.00
2023-02-07T03:14:36.974Z,15.20
2023-02-07T03:15:37.377Z,14.70
2023-02-07T03:16:36.938Z,15.60
2023-02-07T03:17:36.932Z,18.50
2023-02-07T03:18:36.916Z,22.40
2023-02-07T03:19:36.905Z,20.00
2023-02-07T03:20:36.891Z,21.50
2023-02-07T03:21:36.889Z,28.50
2023-02-07T03:22:36.853Z,23.60
2023-02-07T03:23:36.842Z,19.40
2023-02-07T03:24:36.835Z,19.50
2023-02-07T03:25:37.098Z,17.90
2023-02-07T03:26:36.797Z,17.30
2023-02-07T03:27:36.810Z,17.50
2023-02-07T03:28:36.776Z,16.70
2023-02-07T03:29:36.801Z,15.70
2023-02-07T03:30:36.804Z,16.30
2023-02-07T03:31:36.787Z,16.40
2023-02-07T03:32:36.735Z,17.40
2023-02-07T03:33:36.791Z,16.00
2023-02-07T03:34:36.697Z,16.20
2023-02-07T03:35:37.039Z,16.30
2023-02-07T03:36:36.712Z,17.00
2023-02-07T03:37:36.662Z,17.20
2023-02-07T03:38:36.685Z,17.70
2023-02-07T03:39:36.651Z,16.30
2023-02-07T03:40:36.626Z,17.20
2023-02-07T03:41:36.620Z,16.30
2023-02-07T03:42:36.610Z,15.70
2023-02-07T03:43:36.591Z,16.60
2023-02-07T03:44:36.570Z,16.70
2023-02-07T03:45:36.840Z,16.00
2023-02-07T03:46:36.620Z,15.90
2023-02-07T03:47:36.532Z,18.90
2023-02-07T03:48:36.535Z,16.80
2023-02-07T03:49:36.516Z,17.20
2023-02-07T03:50:36.502Z,17.60
2023-02-07T03:51:36.504Z,17.20
2023-02-07T03:52:36.476Z,17.40
2023-02-07T03:53:36.486Z,18.20
2023-02-07T03:54:36.444Z,16.70
2023-02-07T03:55:36.724Z,17.50
2023-02-07T03:56:36.429Z,16.90
2023-02-07T03:57:36.424Z,16.60
2023-02-07T03:58:36.407Z,17.30
2023-02-07T03:59:36.391Z,15.90
2023-02-07T04:00:36.376Z,17.80
2023-02-07T04:01:36.366Z,16.70
2023-02-07T04:02:36.420Z,17.20
2023-02-07T04:03:36.358Z,16.20
2023-02-07T04:04:36.337Z,18.20
2023-02-07T04:05:36.578Z,17.50
2023-02-07T04:06:36.298Z,17.60
2023-02-07T04:07:36.315Z,17.40
2023-02-07T04:08:36.338Z,17.60
2023-02-07T04:09:36.279Z,17.90
2023-02-07T04:10:36.246Z,17.10
2023-02-07T04:11:36.264Z,17.70
2023-02-07T04:12:36.228Z,18.40
2023-02-07T04:13:36.215Z,17.30
2023-02-07T04:14:36.196Z,17.90
2023-02-07T04:15:36.508Z,16.80
2023-02-07T04:16:36.250Z,17.60
2023-02-07T04:17:36.165Z,17.60
2023-02-07T04:18:36.163Z,18.00
2023-02-07T04:19:36.146Z,17.30
2023-02-07T04:20:36.155Z,17.80
2023-02-07T04:21:36.165Z,18.10
2023-02-07T04:22:36.103Z,17.20
2023-02-07T04:23:36.100Z,17.70
2023-02-07T04:24:36.078Z,17.00
2023-02-07T04:25:36.174Z,17.90
2023-02-07T04:26:36.053Z,16.80
2023-02-07T04:27:36.106Z,18.40
2023-02-07T04:28:36.021Z,16.80
2023-02-07T04:29:36.005Z,17.70
2023-02-07T04:30:36.029Z,17.20
2023-02-07T04:31:35.991Z,17.50
2023-02-07T04:32:35.974Z,17.80
2023-02-07T04:33:35.979Z,17.80
2023-02-07T04:34:35.951Z,17.80
2023-02-07T04:35:36.238Z,17.60
2023-02-07T04:36:35.939Z,17.30
2023-02-07T04:37:35.910Z,17.10
2023-02-07T04:38:35.887Z,17.50
2023-02-07T04:39:35.899Z,18.70
2023-02-07T04:40:35.874Z,17.20
2023-02-07T04:41:35.849Z,17.60
2023-02-07T04:42:35.978Z,17.20
2023-02-07T04:43:36.749Z,18.80
2023-02-07T04:44:35.823Z,17.80
2023-02-07T04:45:36.164Z,17.20
2023-02-07T04:46:35.810Z,18.00
2023-02-07T04:47:35.794Z,17.50
2023-02-07T04:48:35.784Z,17.60
2023-02-07T04:49:35.752Z,17.50
2023-02-07T04:50:35.742Z,17.50
2023-02-07T04:51:35.771Z,18.10
2023-02-07T04:52:35.713Z,17.50
2023-02-07T04:53:35.709Z,17.90
2023-02-07T04:54:35.909Z,18.30
2023-02-07T04:55:35.735Z,16.90
2023-02-07T04:56:36.427Z,17.00
2023-02-07T04:57:35.691Z,17.10
2023-02-07T04:58:35.651Z,17.60
2023-02-07T04:59:35.632Z,17.20
2023-02-07T05:00:35.610Z,17.20
2023-02-07T05:01:35.602Z,16.70
2023-02-07T05:02:35.603Z,16.80
2023-02-07T05:03:35.591Z,17.80
2023-02-07T05:04:35.606Z,17.70
2023-02-07T05:05:35.662Z,17.30
2023-02-07T05:06:35.564Z,18.40
2023-02-07T05:07:35.528Z,17.30
2023-02-07T05:08:35.523Z,17.80
2023-02-07T05:09:35.533Z,18.30
2023-02-07T05:10:35.501Z,16.90
2023-02-07T05:11:35.472Z,17.30
2023-02-07T05:12:35.462Z,17.20
2023-02-07T05:13:35.453Z,17.10
2023-02-07T05:14:35.435Z,17.30
2023-02-07T05:15:35.735Z,17.10
2023-02-07T05:16:35.509Z,17.20
2023-02-07T05:17:35.956Z,16.90
2023-02-07T05:18:35.397Z,17.10
2023-02-07T05:19:35.379Z,17.00
2023-02-07T05:20:35.394Z,16.90
2023-02-07T05:21:35.379Z,16.90
2023-02-07T05:22:35.341Z,15.80
2023-02-07T05:23:35.331Z,17.10
2023-02-07T05:24:35.320Z,16.80
2023-02-07T05:25:35.318Z,16.60
2023-02-07T05:26:35.297Z,16.70
2023-02-07T05:27:35.310Z,17.20
2023-02-07T05:28:35.286Z,16.70
2023-02-07T05:29:35.254Z,17.50
2023-02-07T05:30:35.293Z,16.30
2023-02-07T05:31:35.352Z,16.70
2023-02-07T05:32:35.238Z,17.30
2023-02-07T05:33:35.230Z,16.50
2023-02-07T05:34:35.197Z,17.30
2023-02-07T05:35:35.202Z,17.30
2023-02-07T05:36:35.163Z,16.40
2023-02-07T05:37:35.172Z,17.00
2023-02-07T05:38:35.137Z,17.40
2023-02-07T05:39:35.145Z,16.90
2023-02-07T05:40:35.107Z,16.90
2023-02-07T05:41:35.341Z,17.20
2023-02-07T05:42:35.094Z,18.20
2023-02-07T05:43:35.072Z,16.80
2023-02-07T05:44:35.064Z,17.50
2023-02-07T05:45:35.075Z,20.90
2023-02-07T05:46:35.051Z,18.20
2023-02-07T05:47:35.029Z,19.10
2023-02-07T05:48:35.970Z,17.80
2023-02-07T05:49:35.019Z,18.00
2023-02-07T05:50:34.985Z,17.90
2023-02-07T05:51:35.035Z,18.80
2023-02-07T05:52:35.866Z,22.10
2023-02-07T05:53:34.949Z,19.70
2023-02-07T05:54:35.059Z,18.70
2023-02-07T05:55:34.948Z,18.20
2023-02-07T05:56:34.953Z,18.20
2023-02-07T05:57:34.919Z,17.50
2023-02-07T05:58:34.895Z,18.60
2023-02-07T05:59:34.877Z,18.20
2023-02-07T06:00:34.886Z,18.70
2023-02-07T06:01:37.260Z,17.40
2023-02-07T06:02:34.905Z,17.20
2023-02-07T06:03:34.869Z,17.70
2023-02-07T06:04:34.815Z,16.60
2023-02-07T06:05:34.819Z,17.80
2023-02-07T06:06:34.825Z,17.20
2023-02-07T06:07:34.795Z,17.20
2023-02-07T06:08:34.760Z,17.40
2023-02-07T06:09:34.754Z,16.90
2023-02-07T06:10:34.749Z,18.00
2023-02-07T06:11:34.743Z,16.70
2023-02-07T06:12:34.786Z,17.80
2023-02-07T06:13:34.721Z,16.90
2023-02-07T06:14:34.736Z,18.10
2023-02-07T06:15:34.808Z,18.30
2023-02-07T06:16:34.796Z,17.40
2023-02-07T06:17:34.767Z,18.30
2023-02-07T06:18:34.668Z,16.90
2023-02-07T06:19:34.644Z,17.30
2023-02-07T06:20:34.608Z,17.40
2023-02-07T06:21:45.733Z,18.00
2023-02-07T06:22:35.596Z,17.00
2023-02-07T06:23:34.568Z,17.80
2023-02-07T06:24:34.584Z,19.00
2023-02-07T06:25:34.553Z,17.80
2023-02-07T06:26:34.552Z,17.60
2023-02-07T06:27:34.535Z,18.00
2023-02-07T06:28:34.528Z,19.50
2023-02-07T06:29:34.516Z,20.80
2023-02-07T06:30:34.535Z,19.70
2023-02-07T06:31:34.567Z,20.40
2023-02-07T06:32:34.475Z,21.00
2023-02-07T06:33:34.498Z,22.00
2023-02-07T06:34:34.431Z,21.90
2023-02-07T06:35:34.430Z,23.00
2023-02-07T06:36:34.469Z,19.40
2023-02-07T06:37:34.428Z,20.40
2023-02-07T06:38:34.389Z,19.80
2023-02-07T06:39:34.417Z,20.20
2023-02-07T06:40:34.362Z,20.70
2023-02-07T06:41:34.358Z,21.10
2023-02-07T06:42:34.393Z,21.60
2023-02-07T06:43:34.338Z,23.60
2023-02-07T06:44:34.323Z,22.80
2023-02-07T06:45:34.359Z,18.80
2023-02-07T06:46:34.317Z,19.10
2023-02-07T06:47:34.293Z,18.40
2023-02-07T06:48:34.314Z,18.00
2023-02-07T06:49:34.264Z,18.70
2023-02-07T06:50:34.282Z,17.60
2023-02-07T06:51:34.242Z,17.30
2023-02-07T06:52:34.215Z,16.60
2023-02-07T06:53:34.204Z,16.80
2023-02-07T06:54:34.193Z,17.10
2023-02-07T06:55:34.200Z,17.00
2023-02-07T06:56:34.162Z,18.10
2023-02-07T06:57:34.270Z,19.20
2023-02-07T06:58:34.143Z,19.40
2023-02-07T06:59:34.144Z,18.10
2023-02-07T07:00:34.129Z,19.10
2023-02-07T07:01:34.127Z,16.60
2023-02-07T07:02:34.101Z,18.50
2023-02-07T07:03:34.093Z,17.90
2023-02-07T07:04:34.061Z,17.40
2023-02-07T07:05:34.052Z,16.50
2023-02-07T07:06:35.031Z,16.60
2023-02-07T07:07:34.034Z,16.90
2023-02-07T07:08:35.788Z,17.50
2023-02-07T07:09:34.054Z,16.80
2023-02-07T07:10:34.047Z,17.80
2023-02-07T07:11:34.012Z,16.60
2023-02-07T07:12:33.956Z,16.80
2023-02-07T07:13:33.988Z,17.30
2023-02-07T07:14:33.954Z,17.80
2023-02-07T07:15:33.966Z,16.50
2023-02-07T07:16:33.983Z,17.80
2023-02-07T07:17:33.935Z,15.60
2023-02-07T07:18:33.892Z,17.50
2023-02-07T07:19:33.884Z,16.00
2023-02-07T07:20:33.868Z,16.20
2023-02-07T07:21:34.397Z,16.60
2023-02-07T07:22:33.840Z,16.50
2023-02-07T07:23:33.836Z,17.20
2023-02-07T07:24:33.806Z,17.10
2023-02-07T07:25:33.816Z,16.60
2023-02-07T07:26:47.962Z,16.60
2023-02-07T07:27:34.810Z,16.50
2023-02-07T07:28:33.802Z,19.30
2023-02-07T07:29:33.751Z,17.10
2023-02-07T07:30:33.782Z,16.60
2023-02-07T07:31:33.900Z,16.60
2023-02-07T07:32:34.621Z,15.80
2023-02-07T07:33:33.741Z,17.20
2023-02-07T07:34:33.741Z,16.30
2023-02-07T07:35:33.701Z,17.00
2023-02-07T07:36:33.663Z,16.70
2023-02-07T07:37:33.649Z,16.80
2023-02-07T07:38:33.652Z,15.90
2023-02-07T07:39:33.653Z,17.00
2023-02-07T07:40:33.620Z,16.60
2023-02-07T07:41:33.596Z,16.50
2023-02-07T07:42:33.581Z,16.20
2023-02-07T07:43:33.566Z,15.90
2023-02-07T07:44:33.555Z,15.30
2023-02-07T07:45:33.561Z,15.80
2023-02-07T07:46:33.595Z,15.90
2023-02-07T07:47:33.529Z,17.70
2023-02-07T07:48:33.579Z,16.50
2023-02-07T07:49:33.525Z,15.90
2023-02-07T07:50:33.503Z,15.80
2023-02-07T07:51:33.511Z,16.40
2023-02-07T07:52:33.466Z,16.40
2023-02-07T07:53:33.438Z,16.40
2023-02-07T07:54:33.431Z,15.90
2023-02-07T07:55:33.448Z,15.90
2023-02-07T07:56:33.435Z,16.20
2023-02-07T07:57:33.419Z,17.40
2023-02-07T07:58:33.391Z,16.70
2023-02-07T07:59:33.483Z,16.00
2023-02-07T08:00:33.401Z,16.40
2023-02-07T08:01:33.336Z,17.10
2023-02-07T08:02:33.336Z,16.70
2023-02-07T08:03:33.417Z,15.70
2023-02-07T08:04:33.307Z,16.10
2023-02-07T08:05:33.304Z,15.50
2023-02-07T08:06:33.324Z,15.10
2023-02-07T08:07:33.301Z,16.60
2023-02-07T08:08:33.312Z,15.70
2023-02-07T08:09:33.255Z,15.50
2023-02-07T08:10:33.248Z,16.10
2023-02-07T08:11:33.218Z,15.00
2023-02-07T08:12:33.196Z,15.70
2023-02-07T08:13:33.469Z,16.60
2023-02-07T08:14:33.191Z,15.60
2023-02-07T08:15:33.392Z,15.20
2023-02-07T08:16:33.304Z,15.70
2023-02-07T08:17:33.252Z,16.00
2023-02-07T08:18:33.152Z,16.00
2023-02-07T08:19:33.224Z,16.00
2023-02-07T08:20:33.098Z,16.00
2023-02-07T08:21:33.105Z,15.60
2023-02-07T08:22:33.113Z,15.50
2023-02-07T08:23:33.116Z,14.90
2023-02-07T08:24:33.073Z,15.20
2023-02-07T08:25:33.044Z,15.50
2023-02-07T08:26:33.063Z,14.40
2023-02-07T08:27:33.053Z,15.30
2023-02-07T08:28:33.008Z,14.80
2023-02-07T08:29:32.998Z,14.80
2023-02-07T08:30:32.979Z,14.70
2023-02-07T08:31:33.123Z,13.70
2023-02-07T08:32:33.051Z,14.20
2023-02-07T08:33:33.157Z,14.60
2023-02-07T08:34:32.926Z,15.10
2023-02-07T08:35:32.911Z,14.80
2023-02-07T08:36:32.904Z,15.20
2023-02-07T08:37:32.897Z,14.60
2023-02-07T08:38:32.874Z,14.90
2023-02-07T08:39:32.915Z,14.40
2023-02-07T08:40:32.895Z,14.40
2023-02-07T08:41:32.870Z,15.30
2023-02-07T08:42:32.861Z,16.40
2023-02-07T08:43:32.848Z,16.20
2023-02-07T08:44:32.850Z,14.90
2023-02-07T08:45:32.928Z,14.70
2023-02-07T08:46:32.862Z,14.90
2023-02-07T08:47:32.807Z,15.50
2023-02-07T08:48:32.825Z,13.20
2023-02-07T08:49:32.796Z,13.90
2023-02-07T08:50:32.791Z,14.10
2023-02-07T08:51:32.789Z,13.90
2023-02-07T08:52:32.740Z,14.10
2023-02-07T08:53:32.700Z,14.20
2023-02-07T08:54:32.825Z,13.80
2023-02-07T08:55:32.758Z,14.20
2023-02-07T08:56:32.679Z,13.70
2023-02-07T08:57:32.783Z,13.80
2023-02-07T08:58:32.632Z,13.20
2023-02-07T08:59:33.608Z,14.00
2023-02-07T09:00:32.638Z,14.80
2023-02-07T09:01:32.600Z,14.10
2023-02-07T09:02:32.596Z,13.60
2023-02-07T09:03:32.713Z,13.40
2023-02-07T09:04:32.589Z,13.60
2023-02-07T09:05:32.545Z,13.30
2023-02-07T09:06:32.548Z,14.60
2023-02-07T09:07:32.514Z,12.80
2023-02-07T09:08:32.502Z,14.10
2023-02-07T09:09:32.562Z,13.50
2023-02-07T09:10:32.516Z,13.70
2023-02-07T09:11:32.513Z,14.20
2023-02-07T09:12:32.534Z,14.10
2023-02-07T09:13:32.520Z,13.30
2023-02-07T09:14:32.426Z,14.10
2023-02-07T09:15:32.775Z,13.10
2023-02-07T09:16:32.797Z,14.40
2023-02-07T09:17:32.420Z,13.80
2023-02-07T09:18:32.414Z,13.80
2023-02-07T09:19:32.366Z,13.60
2023-02-07T09:20:32.372Z,13.90
2023-02-07T09:21:32.360Z,13.60
2023-02-07T09:22:32.332Z,13.20
2023-02-07T09:23:32.335Z,14.30
2023-02-07T09:24:32.326Z,13.20
2023-02-07T09:25:32.302Z,13.30
2023-02-07T09:26:32.304Z,13.00
2023-02-07T09:27:32.313Z,13.20
2023-02-07T09:28:32.256Z,12.50
2023-02-07T09:29:32.248Z,13.40
2023-02-07T09:30:32.241Z,12.80
2023-02-07T09:31:32.324Z,13.20
2023-02-07T09:32:32.210Z,12.50
2023-02-07T09:33:32.412Z,13.10
2023-02-07T09:34:32.199Z,13.70
2023-02-07T09:35:32.173Z,13.10
2023-02-07T09:36:32.209Z,14.50
2023-02-07T09:37:39.996Z,13.80
2023-02-07T09:38:33.180Z,13.90
2023-02-07T09:39:32.132Z,13.20
2023-02-07T09:40:32.121Z,13.10
2023-02-07T09:41:32.236Z,12.60
2023-02-07T09:42:32.120Z,13.00
2023-02-07T09:43:36.448Z,12.70
2023-02-07T09:44:33.314Z,13.10
2023-02-07T09:45:32.192Z,13.00
2023-02-07T09:46:32.047Z,13.60
2023-02-07T09:47:32.039Z,13.50
2023-02-07T09:48:31.994Z,13.70
2023-02-07T09:49:32.013Z,13.30
2023-02-07T09:50:31.971Z,13.50
2023-02-07T09:51:31.984Z,12.50
2023-02-07T09:52:31.934Z,13.70
2023-02-07T09:53:31.949Z,13.30
2023-02-07T09:54:31.922Z,13.60
2023-02-07T09:55:31.901Z,13.00
2023-02-07T09:56:31.924Z,13.80
2023-02-07T09:57:31.879Z,13.50
2023-02-07T09:58:31.889Z,13.00
2023-02-07T09:59:31.847Z,14.30
2023-02-07T10:00:31.848Z,14.20
2023-02-07T10:01:31.860Z,13.60
2023-02-07T10:02:31.857Z,12.90
2023-02-07T10:03:31.809Z,14.00
2023-02-07T10:04:31.787Z,13.20
2023-02-07T10:05:31.824Z,14.10
2023-02-07T10:06:31.753Z,13.10
2023-02-07T10:07:31.788Z,13.50
2023-02-07T10:08:40.623Z,14.60
2023-02-07T10:09:32.734Z,13.70
2023-02-07T10:10:31.732Z,13.30
2023-02-07T10:11:31.713Z,13.40
2023-02-07T10:12:31.718Z,13.90
2023-02-07T10:13:31.674Z,13.70
2023-02-07T10:14:31.693Z,13.20
2023-02-07T10:15:31.686Z,13.60
2023-02-07T10:16:31.641Z,13.80
2023-02-07T10:17:32.234Z,13.70
2023-02-07T10:18:31.613Z,13.90
2023-02-07T10:19:31.588Z,13.30
2023-02-07T10:20:31.622Z,12.80
2023-02-07T10:21:31.588Z,12.60
2023-02-07T10:22:31.557Z,13.50
2023-02-07T10:23:31.539Z,14.20
2023-02-07T10:24:31.518Z,13.30
2023-02-07T10:25:31.853Z,14.20
2023-02-07T10:26:31.544Z,13.60
2023-02-07T10:27:31.489Z,13.70
2023-02-07T10:28:31.480Z,13.60
2023-02-07T10:29:31.462Z,13.50
2023-02-07T10:30:31.483Z,14.00
2023-02-07T10:31:31.557Z,14.40
2023-02-07T10:32:31.443Z,12.90
2023-02-07T10:33:31.418Z,13.40
2023-02-07T10:34:31.421Z,13.90
2023-02-07T10:35:31.393Z,13.10
2023-02-07T10:36:33.553Z,13.20
2023-02-07T10:37:41.658Z,12.80
2023-02-07T10:38:31.771Z,12.80
2023-02-07T10:39:31.643Z,12.10
2023-02-07T10:40:39.164Z,11.20
2023-02-07T10:41:31.806Z,12.20
2023-02-07T10:42:31.995Z,12.40
2023-02-07T10:43:37.075Z,12.50
2023-02-07T10:44:42.656Z,11.70
2023-02-07T10:45:32.773Z,11.40
2023-02-07T10:46:33.843Z,11.80
2023-02-07T10:47:32.730Z,11.00
2023-02-07T10:48:33.700Z,12.00
2023-02-07T10:49:31.205Z,12.00
2023-02-07T10:50:33.276Z,11.50
2023-02-07T10:51:39.336Z,11.30
2023-02-07T10:52:32.120Z,12.70
2023-02-07T10:53:55.277Z,10.90
2023-02-07T10:54:42.982Z,12.20
2023-02-07T10:55:32.820Z,12.20
2023-02-07T10:56:32.134Z,11.70
2023-02-07T10:57:31.123Z,11.00
2023-02-07T10:58:31.088Z,11.00
2023-02-07T10:59:31.070Z,11.10
2023-02-07T11:00:31.057Z,11.10
2023-02-07T11:01:31.114Z,10.90
2023-02-07T11:02:31.113Z,11.30
2023-02-07T11:03:31.014Z,10.70
2023-02-07T11:04:31.018Z,11.80
2023-02-07T11:05:30.987Z,11.20
2023-02-07T11:06:30.990Z,10.80
2023-02-07T11:07:42.587Z,11.00
2023-02-07T11:08:31.977Z,11.00
2023-02-07T11:09:30.942Z,10.70
2023-02-07T11:10:30.926Z,11.60
2023-02-07T11:11:30.928Z,11.20
2023-02-07T11:12:30.897Z,10.90
2023-02-07T11:13:30.895Z,10.90
2023-02-07T11:14:30.886Z,11.20
2023-02-07T11:15:30.902Z,10.90
2023-02-07T11:16:30.845Z,11.30
2023-02-07T11:17:30.932Z,11.20
2023-02-07T11:18:30.826Z,10.80
2023-02-07T11:19:30.824Z,10.30
2023-02-07T11:20:30.847Z,9.30
2023-02-07T11:21:30.804Z,9.70
2023-02-07T11:22:30.797Z,10.00
2023-02-07T11:23:30.766Z,9.70
2023-02-07T11:24:30.776Z,9.70
2023-02-07T11:25:30.753Z,10.20
2023-02-07T11:26:30.757Z,10.80
2023-02-07T11:27:30.774Z,10.20
2023-02-07T11:28:30.722Z,10.00
2023-02-07T11:29:30.701Z,10.00
2023-02-07T11:30:30.764Z,10.20
2023-02-07T11:31:30.947Z,10.20
2023-02-07T11:32:30.707Z,11.00
2023-02-07T11:33:30.646Z,10.10
2023-02-07T11:34:30.626Z,9.60
2023-02-07T11:35:30.624Z,10.70
2023-02-07T11:36:30.613Z,11.00
2023-02-07T11:37:30.613Z,9.80
2023-02-07T11:38:30.599Z,9.70
2023-02-07T11:39:30.579Z,10.40
2023-02-07T11:40:30.539Z,10.00
2023-02-07T11:41:30.536Z,9.80
2023-02-07T11:42:30.529Z,10.10
2023-02-07T11:43:30.511Z,9.70
2023-02-07T11:44:30.847Z,9.70
2023-02-07T11:45:30.472Z,9.30
2023-02-07T11:46:30.535Z,10.00
2023-02-07T11:47:30.478Z,10.10
2023-02-07T11:48:30.425Z,10.20
2023-02-07T11:49:30.418Z,9.40
2023-02-07T11:50:30.872Z,9.00
2023-02-07T11:51:30.403Z,9.60
2023-02-07T11:52:30.386Z,9.50
2023-02-07T11:53:30.381Z,10.30
2023-02-07T11:54:30.354Z,9.70
2023-02-07T11:55:30.343Z,9.70
2023-02-07T11:56:30.396Z,9.30
2023-02-07T11:57:30.304Z,9.60
2023-02-07T11:58:30.315Z,9.00
2023-02-07T11:59:30.317Z,9.10
2023-02-07T12:00:30.340Z,9.60
2023-02-07T12:01:30.299Z,8.70
2023-02-07T12:02:30.264Z,8.90
2023-02-07T12:03:30.257Z,9.30
2023-02-07T12:04:30.266Z,8.90
2023-02-07T12:05:30.216Z,9.40
2023-02-07T12:06:30.194Z,9.90
2023-02-07T12:07:30.208Z,9.10
2023-02-07T12:08:30.184Z,9.10
2023-02-07T12:09:30.171Z,8.70
2023-02-07T12:10:30.153Z,9.30
2023-02-07T12:11:30.165Z,8.80
2023-02-07T12:12:30.121Z,9.00
2023-02-07T12:13:30.173Z,9.90
2023-02-07T12:14:30.105Z,9.60
2023-02-07T12:15:30.077Z,10.30
2023-02-07T12:16:30.129Z,9.70
2023-02-07T12:17:30.056Z,10.10
2023-02-07T12:18:30.045Z,10.30
2023-02-07T12:19:30.026Z,11.30
2023-02-07T12:20:30.042Z,10.00
2023-02-07T12:21:30.013Z,9.70
2023-02-07T12:22:29.988Z,9.70
2023-02-07T12:23:41.622Z,9.80
2023-02-07T12:24:30.979Z,10.00
2023-02-07T12:25:30.083Z,10.40
2023-02-07T12:26:50.968Z,10.30
2023-02-07T12:27:29.917Z,9.80
2023-02-07T12:28:29.910Z,9.40
2023-02-07T12:29:29.886Z,9.90
2023-02-07T12:30:29.894Z,9.80
2023-02-07T12:31:29.972Z,9.60
2023-02-07T12:32:29.981Z,10.50
2023-02-07T12:33:29.862Z,8.90
2023-02-07T12:34:29.833Z,9.80
2023-02-07T12:35:29.809Z,9.40
2023-02-07T12:36:29.810Z,8.80
2023-02-07T12:37:29.795Z,9.80
2023-02-07T12:38:29.798Z,9.70
2023-02-07T12:39:29.784Z,12.20
2023-02-07T12:40:29.748Z,9.40
2023-02-07T12:41:29.771Z,10.80
2023-02-07T12:42:29.724Z,10.90
2023-02-07T12:43:29.764Z,10.80
2023-02-07T12:44:29.718Z,9.20
2023-02-07T12:45:29.735Z,9.50
2023-02-07T12:46:29.704Z,9.50
2023-02-07T12:47:29.656Z,9.40
2023-02-07T12:48:29.668Z,9.00
2023-02-07T12:49:29.643Z,9.10
2023-02-07T12:50:29.758Z,8.90
2023-02-07T12:51:29.605Z,9.60
2023-02-07T12:52:29.600Z,9.70
2023-02-07T12:53:29.578Z,9.20
2023-02-07T12:54:29.573Z,9.90